Погода Слаутинона 2 недели

Тверская область, Россия

20 мая-02 июня
  • 20мая
    Сегодня
    +8°
    +24°
    Небольшая облачность, ливень
    ВремяПогодаТемператураВлажностьДавлениеВетер, м/сВероятность осадков
    00:00Ясно и безоблачно+12°C62 %742 мм3.3 м/с2 %
    03:00Ясно и безоблачно+10°C69 %742 мм3.3 м/с2 %
    06:00Ясно и безоблачно+11°C77 %742 мм2.9 м/с2 %
    09:00Ясно и безоблачно+19°C66 %743 мм2.4 м/с2 %
    12:00Небольшая облачность+24°C47 %743 мм3.2 м/с3 %
    15:00Небольшая облачность, ливень+20°C64 %743 мм1.9 м/с40 %
    18:00Небольшая облачность, ливень+19°C75 %743 мм0.4 м/с62 %
    21:00Облачно с прояснениями+16°C90 %744 мм1.7 м/с15 %
  • 21мая
    Вторник
    +7°
    +22°
    Ясно и безоблачно
    ВремяПогодаТемператураВлажностьДавлениеВетер, м/сВероятность осадков
    00:00Ясно и безоблачно+10°C98 %744 мм1.9 м/с2 %
    03:00Ясно и безоблачно+8°C100 %744 мм2.1 м/с2 %
    06:00Небольшая облачность+11°C97 %745 мм2.4 м/с5 %
    09:00Практически безоблачно+17°C75 %746 мм2.3 м/с5 %
    12:00Практически безоблачно+20°C57 %747 мм2.9 м/с14 %
    15:00Ясно и безоблачно+22°C44 %746 мм3.0 м/с20 %
    18:00Ясно и безоблачно+21°C42 %746 мм3.4 м/с10 %
    21:00Ясно и безоблачно+15°C51 %747 мм2.4 м/с2 %
  • 22мая
    Среда
    +8°
    +23°
    Ясно и безоблачно
    ВремяПогодаТемператураВлажностьДавлениеВетер, м/сВероятность осадков
    00:00Ясно и безоблачно+10°C60 %747 мм2.8 м/с2 %
    03:00Ясно и безоблачно+8°C68 %747 мм2.9 м/с2 %
    06:00Ясно и безоблачно+8°C65 %748 мм2.9 м/с2 %
    09:00Ясно и безоблачно+15°C60 %748 мм2.8 м/с2 %
    12:00Ясно и безоблачно+20°C45 %748 мм2.6 м/с8 %
    15:00Ясно и безоблачно+22°C42 %748 мм2.3 м/с14 %
    18:00Ясно и безоблачно+23°C41 %747 мм2.9 м/с10 %
    21:00Практически безоблачно+17°C57 %748 мм3.3 м/с3 %
  • 23мая
    Четверг
    +6°
    +22°
    Ясно и безоблачно
    ВремяПогодаТемператураВлажностьДавлениеВетер, м/сВероятность осадков
    00:00Ясно и безоблачно+11°C62 %749 мм3.3 м/с2 %
    03:00Ясно и безоблачно+9°C65 %749 мм2.8 м/с2 %
    06:00Ясно и безоблачно+9°C67 %750 мм2.8 м/с3 %
    09:00Ясно и безоблачно+17°C56 %751 мм2.7 м/с3 %
    12:00Ясно и безоблачно+20°C40 %751 мм3.3 м/с5 %
    15:00Ясно и безоблачно+21°C38 %751 мм3.3 м/с5 %
    18:00Практически безоблачно+22°C38 %750 мм3.1 м/с8 %
    21:00Практически безоблачно+15°C63 %751 мм2.3 м/с2 %
  • 24мая
    Пятница
    +7°
    +22°
    Ясно и безоблачно
    ВремяПогодаТемператураВлажностьДавлениеВетер, м/сВероятность осадков
    00:00Ясно и безоблачно+11°C60 %751 мм3.0 м/с2 %
    03:00Ясно и безоблачно+8°C69 %752 мм2.3 м/с2 %
    06:00Ясно и безоблачно+9°C74 %752 мм2.2 м/с3 %
    09:00Ясно и безоблачно+17°C54 %753 мм2.4 м/с2 %
    12:00Ясно и безоблачно+20°C41 %753 мм3.8 м/с2 %
    15:00Ясно и безоблачно+21°C38 %752 мм3.8 м/с5 %
    18:00Ясно и безоблачно+21°C40 %751 мм3.4 м/с5 %
    21:00Ясно и безоблачно+16°C60 %750 мм2.5 м/с2 %
Мы используем cookies
Соглашаюсь